createdAt,value
2018-06-27T00:02:07.799Z,99.90
2018-06-27T00:04:37.384Z,99.90
2018-06-27T00:07:07.125Z,99.90
2018-06-27T00:09:37.677Z,99.90
2018-06-27T00:12:07.484Z,99.90
2018-06-27T00:14:38.136Z,99.90
2018-06-27T00:17:07.791Z,99.90
2018-06-27T00:19:38.149Z,99.90
2018-06-27T00:24:38.996Z,99.90
2018-06-27T00:27:08.613Z,99.90
2018-06-27T00:29:38.207Z,99.90
2018-06-27T00:32:07.771Z,99.90
2018-06-27T00:34:37.809Z,99.90
2018-06-27T00:37:07.374Z,99.90
2018-06-27T00:39:37.000Z,99.90
2018-06-27T00:42:06.645Z,99.90
2018-06-27T00:44:36.515Z,99.90
2018-06-27T00:47:07.203Z,99.90
2018-06-27T00:49:37.128Z,99.90
2018-06-27T00:52:06.854Z,99.90
2018-06-27T00:54:36.426Z,99.90
2018-06-27T00:57:06.057Z,99.90
2018-06-27T01:02:05.094Z,99.90
2018-06-27T01:04:35.922Z,99.90
2018-06-27T01:07:05.891Z,99.90
2018-06-27T01:09:36.044Z,99.90
2018-06-27T01:12:05.626Z,99.90
2018-06-27T01:14:35.160Z,99.90
2018-06-27T01:17:04.695Z,99.90
2018-06-27T01:19:34.291Z,99.90
2018-06-27T01:22:03.792Z,99.90
2018-06-27T01:27:02.848Z,99.90
2018-06-27T01:29:33.956Z,99.90
2018-06-27T01:32:03.692Z,99.90
2018-06-27T01:34:39.390Z,99.90
2018-06-27T01:37:09.290Z,99.90
2018-06-27T01:39:38.933Z,99.90
2018-06-27T01:42:08.696Z,99.90
2018-06-27T01:44:38.326Z,99.90
2018-06-27T01:47:08.136Z,99.90
2018-06-27T01:49:37.615Z,99.90
2018-06-27T01:52:07.315Z,99.90
2018-06-27T01:54:36.908Z,99.90
2018-06-27T01:59:36.457Z,99.90
2018-06-27T02:02:06.631Z,99.90
2018-06-27T02:04:37.849Z,99.90
2018-06-27T02:07:08.408Z,99.90
2018-06-27T02:09:38.378Z,99.90
2018-06-27T02:12:08.520Z,99.90
2018-06-27T02:14:38.346Z,99.90
2018-06-27T02:17:08.962Z,99.90
2018-06-27T02:19:40.032Z,99.90
2018-06-27T02:22:09.647Z,99.90
2018-06-27T02:24:39.351Z,99.90
2018-06-27T02:27:09.288Z,99.90
2018-06-27T02:29:39.456Z,99.90
2018-06-27T02:32:09.699Z,99.90
2018-06-27T02:34:39.306Z,99.90
2018-06-27T02:37:09.076Z,99.90
2018-06-27T02:39:38.702Z,99.90
2018-06-27T02:42:08.165Z,99.90
2018-06-27T02:44:37.811Z,99.90
2018-06-27T02:47:07.671Z,99.90
2018-06-27T02:49:37.193Z,99.90
2018-06-27T02:52:06.674Z,99.90
2018-06-27T02:54:36.322Z,99.90
2018-06-27T02:57:06.045Z,99.90
2018-06-27T02:59:35.652Z,99.90
2018-06-27T03:02:05.294Z,99.90
2018-06-27T03:04:34.948Z,99.90
2018-06-27T03:07:04.506Z,99.90
2018-06-27T03:09:34.049Z,99.90
2018-06-27T03:14:33.424Z,99.90
2018-06-27T03:17:03.037Z,99.90
2018-06-27T03:19:33.916Z,99.90
2018-06-27T03:22:04.085Z,99.90
2018-06-27T03:24:33.661Z,99.90
2018-06-27T03:27:04.493Z,99.90
2018-06-27T03:29:34.172Z,99.90
2018-06-27T03:32:03.779Z,99.90
2018-06-27T03:34:34.347Z,99.90
2018-06-27T03:37:03.940Z,99.90
2018-06-27T03:39:33.495Z,99.90
2018-06-27T03:42:03.651Z,99.90
2018-06-27T03:44:33.757Z,99.90
2018-06-27T03:47:03.826Z,99.90
2018-06-27T03:49:33.598Z,99.90
2018-06-27T03:52:03.408Z,99.90
2018-06-27T03:54:33.089Z,99.90
2018-06-27T03:57:02.751Z,99.90
2018-06-27T03:59:32.381Z,99.90
2018-06-27T04:02:02.048Z,99.90
2018-06-27T04:04:33.027Z,99.90
2018-06-27T04:07:02.565Z,99.90
2018-06-27T04:09:32.680Z,99.90
2018-06-27T04:12:02.224Z,99.90
2018-06-27T04:14:32.536Z,99.90
2018-06-27T04:17:02.931Z,99.90
2018-06-27T04:19:33.361Z,99.90
2018-06-27T04:22:03.499Z,99.90
2018-06-27T04:24:33.053Z,99.90
2018-06-27T04:27:02.591Z,99.90
2018-06-27T04:29:32.435Z,99.90
2018-06-27T04:34:31.170Z,99.90
2018-06-27T04:37:03.565Z,99.90
2018-06-27T04:39:33.970Z,99.90
2018-06-27T04:42:03.441Z,99.90
2018-06-27T04:44:34.012Z,99.90
2018-06-27T04:47:03.553Z,99.90
2018-06-27T04:49:33.152Z,99.90
2018-06-27T04:52:03.318Z,99.90
2018-06-27T04:54:32.894Z,99.90
2018-06-27T04:57:02.982Z,99.90
2018-06-27T04:59:33.150Z,99.90
2018-06-27T05:02:03.366Z,99.90
2018-06-27T05:04:32.993Z,99.90
2018-06-27T05:07:02.491Z,99.90
2018-06-27T05:09:32.047Z,99.90
2018-06-27T05:12:03.455Z,99.90
2018-06-27T05:14:35.305Z,99.90
2018-06-27T05:17:04.908Z,99.90
2018-06-27T05:19:39.056Z,99.90
2018-06-27T05:22:09.534Z,99.90
2018-06-27T05:24:39.034Z,99.90
2018-06-27T05:27:08.757Z,99.90
2018-06-27T05:29:38.329Z,99.90
2018-06-27T05:32:07.821Z,99.90
2018-06-27T05:34:37.348Z,99.90
2018-06-27T05:37:07.145Z,99.90
2018-06-27T05:39:36.622Z,99.90
2018-06-27T05:42:06.174Z,99.90
2018-06-27T05:44:35.628Z,99.90
2018-06-27T05:47:05.134Z,99.90
2018-06-27T05:49:34.697Z,99.90
2018-06-27T05:52:04.198Z,99.90
2018-06-27T05:54:33.823Z,99.90
2018-06-27T05:57:03.746Z,99.90
2018-06-27T05:59:33.286Z,99.90
2018-06-27T06:02:02.854Z,99.90
2018-06-27T06:04:32.359Z,99.90
2018-06-27T06:07:01.813Z,99.90
2018-06-27T06:09:31.350Z,99.90
2018-06-27T06:12:00.829Z,99.90
2018-06-27T06:14:30.422Z,99.90
2018-06-27T06:16:59.941Z,99.90
2018-06-27T06:19:29.432Z,99.90
2018-06-27T06:21:59.147Z,99.90
2018-06-27T06:24:28.722Z,99.90
2018-06-27T06:26:58.502Z,99.90
2018-06-27T06:29:28.061Z,99.90
2018-06-27T06:32:04.475Z,99.90
2018-06-27T06:34:33.933Z,99.90
2018-06-27T06:37:03.380Z,99.90
2018-06-27T06:39:33.219Z,99.90
2018-06-27T06:42:03.483Z,99.90
2018-06-27T06:44:33.341Z,99.90
2018-06-27T06:47:03.215Z,99.90
2018-06-27T06:49:32.725Z,99.90
2018-06-27T06:52:02.212Z,99.90
2018-06-27T06:54:31.698Z,99.90
2018-06-27T06:57:01.174Z,99.90
2018-06-27T06:59:30.720Z,99.90
2018-06-27T07:02:00.270Z,99.90
2018-06-27T07:04:29.750Z,99.90
2018-06-27T07:06:59.302Z,99.90
2018-06-27T07:09:28.823Z,99.90
2018-06-27T07:11:58.335Z,99.90
2018-06-27T07:14:27.920Z,99.90
2018-06-27T07:16:57.398Z,99.90
2018-06-27T07:19:26.962Z,99.90
2018-06-27T07:21:56.510Z,99.90
2018-06-27T07:24:26.036Z,99.90
2018-06-27T07:26:55.527Z,99.90
2018-06-27T07:29:25.024Z,99.90
2018-06-27T07:31:54.521Z,99.90
2018-06-27T07:34:24.106Z,99.90
2018-06-27T07:36:53.741Z,99.90
2018-06-27T07:39:23.209Z,99.90
2018-06-27T07:41:52.752Z,99.90
2018-06-27T07:44:22.371Z,99.90
2018-06-27T07:46:51.950Z,99.90
2018-06-27T07:49:21.466Z,99.90
2018-06-27T07:51:51.180Z,99.90
2018-06-27T07:54:20.702Z,99.90
2018-06-27T07:56:50.216Z,99.90
2018-06-27T07:59:19.752Z,99.90
2018-06-27T08:01:49.318Z,99.90
2018-06-27T08:04:19.086Z,99.90
2018-06-27T08:06:48.535Z,99.90
2018-06-27T08:09:18.014Z,99.90
2018-06-27T08:11:47.705Z,99.90
2018-06-27T08:14:17.223Z,99.90
2018-06-27T08:16:46.726Z,99.90
2018-06-27T08:19:16.384Z,99.90
2018-06-27T08:21:45.978Z,99.90
2018-06-27T08:24:15.692Z,99.90
2018-06-27T08:26:45.440Z,99.90
2018-06-27T08:29:15.077Z,99.90
2018-06-27T08:31:44.763Z,99.90
2018-06-27T08:34:14.402Z,99.90
2018-06-27T08:36:44.116Z,99.90
2018-06-27T08:39:13.618Z,99.40
2018-06-27T08:41:43.142Z,98.00
2018-06-27T08:44:12.656Z,96.50
2018-06-27T08:46:42.131Z,95.00
2018-06-27T08:49:11.702Z,94.40
2018-06-27T08:51:41.210Z,93.60
2018-06-27T08:54:10.716Z,92.50
2018-06-27T08:56:40.214Z,92.10
2018-06-27T08:59:09.744Z,91.90
2018-06-27T09:01:39.282Z,91.50
2018-06-27T09:04:08.780Z,91.60
2018-06-27T09:06:38.304Z,91.20
2018-06-27T09:09:10.899Z,89.60
2018-06-27T09:11:40.688Z,86.30
2018-06-27T09:14:10.178Z,83.60
2018-06-27T09:16:39.771Z,81.30
2018-06-27T09:19:09.427Z,77.10
2018-06-27T09:21:38.986Z,74.80
2018-06-27T09:24:08.572Z,73.10
2018-06-27T09:26:38.340Z,70.80
2018-06-27T09:29:08.767Z,67.00
2018-06-27T09:31:38.320Z,66.10
2018-06-27T09:34:07.971Z,64.20
2018-06-27T09:36:37.573Z,63.10
2018-06-27T09:39:10.747Z,61.40
2018-06-27T09:41:40.453Z,59.70
2018-06-27T09:44:10.134Z,58.20
2018-06-27T09:46:39.835Z,56.90
2018-06-27T09:49:09.456Z,56.80
2018-06-27T09:51:39.170Z,56.90
2018-06-27T09:54:08.859Z,56.90
2018-06-27T09:59:07.848Z,56.00
2018-06-27T10:01:40.482Z,55.10
2018-06-27T10:04:10.217Z,55.20
2018-06-27T10:06:39.697Z,55.20
2018-06-27T10:09:10.650Z,55.80
2018-06-27T10:11:40.377Z,56.80
2018-06-27T10:14:09.947Z,57.50
2018-06-27T10:16:39.675Z,58.60
2018-06-27T10:19:09.208Z,59.20
2018-06-27T10:21:38.949Z,60.60
2018-06-27T10:24:08.539Z,61.90
2018-06-27T10:26:38.190Z,62.20
2018-06-27T10:29:07.741Z,62.70
2018-06-27T10:31:37.467Z,63.70
2018-06-27T10:34:07.024Z,63.70
2018-06-27T10:36:36.664Z,64.80
2018-06-27T10:39:09.913Z,65.10
2018-06-27T10:41:39.972Z,66.60
2018-06-27T10:44:09.514Z,67.80
2018-06-27T10:46:39.027Z,67.90
2018-06-27T10:49:08.596Z,67.30
2018-06-27T10:51:38.158Z,66.60
2018-06-27T10:54:07.642Z,64.40
2018-06-27T10:56:37.292Z,59.80
2018-06-27T10:59:07.706Z,57.90
2018-06-27T11:01:41.935Z,56.50
2018-06-27T11:04:11.510Z,55.20
2018-06-27T11:06:50.602Z,55.00
2018-06-27T11:09:20.750Z,54.80
2018-06-27T11:11:50.299Z,54.70
2018-06-27T11:14:19.821Z,55.20
2018-06-27T11:16:49.440Z,56.10
2018-06-27T11:19:19.016Z,56.80
2018-06-27T11:21:48.546Z,58.30
2018-06-27T11:24:18.283Z,58.70
2018-06-27T11:26:47.975Z,59.40
2018-06-27T11:29:17.472Z,59.90
2018-06-27T11:31:47.090Z,59.70
2018-06-27T11:34:16.581Z,59.80
2018-06-27T11:36:46.133Z,60.30
2018-06-27T11:39:15.655Z,60.30
2018-06-27T11:41:45.390Z,60.40
2018-06-27T11:44:14.997Z,59.90
2018-06-27T11:46:44.588Z,59.70
2018-06-27T11:51:43.632Z,58.40
2018-06-27T11:54:13.288Z,58.90
2018-06-27T11:56:42.815Z,58.10
2018-06-27T11:59:12.412Z,57.30
2018-06-27T12:01:41.980Z,56.20
2018-06-27T12:04:11.588Z,55.00
2018-06-27T12:06:41.063Z,53.90
2018-06-27T12:09:11.419Z,51.90
2018-06-27T12:11:41.028Z,50.70
2018-06-27T12:14:11.380Z,49.30
2018-06-27T12:16:41.390Z,47.60
2018-06-27T12:19:11.018Z,46.10
2018-06-27T12:21:40.566Z,44.60
2018-06-27T12:26:39.456Z,41.20
2018-06-27T12:29:09.203Z,40.00
2018-06-27T12:31:38.737Z,38.90
2018-06-27T12:34:08.795Z,37.90
2018-06-27T12:36:38.371Z,37.20
2018-06-27T12:39:12.288Z,36.80
2018-06-27T12:41:42.225Z,35.80
2018-06-27T12:44:11.696Z,35.20
2018-06-27T12:46:41.226Z,34.50
2018-06-27T12:49:10.762Z,34.40
2018-06-27T12:51:40.368Z,34.20
2018-06-27T12:54:10.104Z,33.90
2018-06-27T12:56:39.762Z,33.70
2018-06-27T12:59:09.340Z,33.30
2018-06-27T13:01:39.426Z,33.00
2018-06-27T13:04:09.123Z,32.90
2018-06-27T13:06:38.741Z,32.60
2018-06-27T13:09:11.716Z,33.10
2018-06-27T13:11:42.082Z,32.40
2018-06-27T13:14:11.591Z,32.40
2018-06-27T13:16:46.304Z,32.20
2018-06-27T13:19:16.070Z,32.30
2018-06-27T13:21:47.007Z,32.30
2018-06-27T13:24:16.808Z,32.50
2018-06-27T13:26:46.520Z,32.50
2018-06-27T13:29:16.256Z,32.70
2018-06-27T13:31:45.862Z,32.40
2018-06-27T13:34:15.487Z,32.90
2018-06-27T13:36:45.053Z,32.60
2018-06-27T13:39:14.633Z,32.60
2018-06-27T13:41:50.776Z,32.70
2018-06-27T13:44:20.630Z,33.20
2018-06-27T13:46:50.573Z,33.10
2018-06-27T13:49:20.172Z,33.70
2018-06-27T13:51:50.584Z,33.50
2018-06-27T13:54:20.600Z,33.30
2018-06-27T13:56:50.186Z,33.20
2018-06-27T13:59:19.836Z,33.90
2018-06-27T14:01:49.374Z,35.50
2018-06-27T14:04:18.928Z,36.30
2018-06-27T14:06:48.916Z,36.30
2018-06-27T14:09:19.770Z,36.60
2018-06-27T14:11:49.387Z,37.90
2018-06-27T14:14:20.228Z,39.40
2018-06-27T14:16:50.234Z,40.10
2018-06-27T14:19:19.776Z,41.20
2018-06-27T14:21:49.415Z,41.70
2018-06-27T14:24:23.154Z,42.40
2018-06-27T14:26:53.614Z,43.50
2018-06-27T14:29:23.203Z,44.60
2018-06-27T14:31:54.444Z,44.60
2018-06-27T14:34:24.215Z,45.40
2018-06-27T14:36:53.796Z,45.80
2018-06-27T14:39:23.361Z,46.30
2018-06-27T14:41:53.215Z,46.90
2018-06-27T14:44:23.080Z,47.20
2018-06-27T14:46:53.661Z,47.50
2018-06-27T14:49:23.471Z,48.20
2018-06-27T14:52:00.901Z,48.80
2018-06-27T14:54:38.570Z,49.30
2018-06-27T14:57:08.597Z,50.00
2018-06-27T14:59:38.577Z,50.20
2018-06-27T15:02:08.462Z,50.70
2018-06-27T15:04:39.103Z,51.00
2018-06-27T15:07:08.683Z,51.10
2018-06-27T15:09:38.344Z,51.30
2018-06-27T15:12:14.507Z,51.80
2018-06-27T15:14:44.356Z,51.70
2018-06-27T15:17:14.091Z,51.60
2018-06-27T15:19:43.689Z,50.80
2018-06-27T15:22:13.199Z,50.00
2018-06-27T15:24:42.793Z,48.30
2018-06-27T15:27:12.383Z,46.10
2018-06-27T15:29:42.605Z,44.40
2018-06-27T15:32:12.489Z,43.80
2018-06-27T15:34:42.317Z,43.50
2018-06-27T15:37:12.076Z,42.80
2018-06-27T15:39:41.921Z,42.20
2018-06-27T15:42:11.705Z,41.30
2018-06-27T15:44:41.348Z,41.30
2018-06-27T15:47:13.248Z,40.70
2018-06-27T15:49:43.608Z,40.40
2018-06-27T15:52:13.647Z,41.00
2018-06-27T15:54:43.615Z,40.60
2018-06-27T15:57:15.095Z,40.30
2018-06-27T15:59:54.661Z,40.00
2018-06-27T16:02:24.326Z,40.60
2018-06-27T16:04:54.114Z,40.70
2018-06-27T16:07:23.811Z,41.10
2018-06-27T16:09:53.853Z,41.20
2018-06-27T16:12:23.448Z,40.90
2018-06-27T16:14:53.099Z,41.10
2018-06-27T16:17:23.517Z,41.10
2018-06-27T16:19:52.804Z,41.20
2018-06-27T16:22:22.481Z,41.20
2018-06-27T16:24:52.287Z,41.70
2018-06-27T16:27:21.788Z,41.80
2018-06-27T16:29:51.302Z,42.20
2018-06-27T16:32:22.563Z,42.70
2018-06-27T16:34:52.130Z,45.30
2018-06-27T16:39:51.070Z,50.10
2018-06-27T16:42:20.810Z,51.30
2018-06-27T16:44:50.386Z,50.40
2018-06-27T16:47:19.968Z,48.90
2018-06-27T16:49:49.533Z,47.70
2018-06-27T16:52:19.755Z,47.00
2018-06-27T16:54:51.075Z,46.90
2018-06-27T16:57:20.813Z,46.60
2018-06-27T16:59:52.141Z,46.60
2018-06-27T17:02:23.868Z,46.90
2018-06-27T17:04:54.456Z,47.40
2018-06-27T17:07:24.007Z,48.10
2018-06-27T17:09:54.635Z,50.00
2018-06-27T17:12:24.531Z,50.80
2018-06-27T17:14:54.027Z,50.30
2018-06-27T17:17:23.574Z,49.60
2018-06-27T17:19:53.234Z,49.00
2018-06-27T17:22:22.838Z,49.60
2018-06-27T17:24:52.823Z,49.30
2018-06-27T17:27:23.093Z,49.70
2018-06-27T17:29:52.975Z,49.80
2018-06-27T17:32:23.241Z,49.60
2018-06-27T17:34:54.753Z,49.80
2018-06-27T17:37:25.537Z,50.10
2018-06-27T17:39:55.907Z,50.00
2018-06-27T17:42:25.753Z,50.00
2018-06-27T17:47:24.595Z,50.70
2018-06-27T17:49:54.230Z,50.80
2018-06-27T17:52:23.890Z,50.80
2018-06-27T17:57:23.544Z,51.60
2018-06-27T17:59:53.381Z,51.90
2018-06-27T18:02:23.716Z,52.50
2018-06-27T18:04:53.476Z,52.70
2018-06-27T18:09:52.531Z,53.60
2018-06-27T18:12:22.152Z,53.80
2018-06-27T18:14:54.813Z,54.10
2018-06-27T18:17:26.623Z,54.40
2018-06-27T18:19:58.184Z,54.70
2018-06-27T18:22:31.924Z,55.10
2018-06-27T18:25:04.021Z,55.70
2018-06-27T18:27:36.708Z,56.30
2018-06-27T18:30:09.241Z,56.50
2018-06-27T18:32:40.288Z,57.30
2018-06-27T18:35:13.084Z,58.10
2018-06-27T18:37:45.775Z,58.80
2018-06-27T18:40:17.978Z,59.60
2018-06-27T18:42:49.604Z,60.50
2018-06-27T18:45:22.462Z,62.40
2018-06-27T18:47:54.557Z,63.60
2018-06-27T18:50:24.046Z,64.70
2018-06-27T18:52:53.548Z,65.60
2018-06-27T18:55:23.169Z,66.40
2018-06-27T18:57:52.713Z,67.30
2018-06-27T19:00:22.222Z,68.30
2018-06-27T19:02:51.774Z,70.00
2018-06-27T19:05:21.436Z,71.90
2018-06-27T19:07:51.017Z,73.70
2018-06-27T19:10:20.537Z,75.30
2018-06-27T19:12:50.095Z,76.70
2018-06-27T19:15:20.047Z,78.30
2018-06-27T19:20:18.835Z,83.40
2018-06-27T19:22:48.416Z,87.00
2018-06-27T19:25:18.211Z,90.90
2018-06-27T19:27:48.011Z,93.10
2018-06-27T19:30:17.755Z,96.50
2018-06-27T19:32:47.509Z,99.90
2018-06-27T19:35:17.479Z,99.90
2018-06-27T19:37:47.098Z,99.90
2018-06-27T19:40:16.753Z,99.90
2018-06-27T19:42:46.469Z,99.90
2018-06-27T19:45:16.040Z,99.90
2018-06-27T19:47:45.602Z,99.90
2018-06-27T19:50:15.294Z,99.90
2018-06-27T19:52:44.945Z,99.90
2018-06-27T19:55:14.690Z,99.90
2018-06-27T19:57:44.314Z,99.90
2018-06-27T20:00:14.253Z,99.90
2018-06-27T20:02:43.890Z,99.90
2018-06-27T20:05:13.582Z,99.90
2018-06-27T20:07:43.381Z,99.90
2018-06-27T20:10:13.153Z,99.90
2018-06-27T20:12:42.994Z,99.90
2018-06-27T20:15:13.500Z,99.90
2018-06-27T20:17:43.969Z,99.90
2018-06-27T20:20:13.643Z,99.90
2018-06-27T20:22:43.428Z,99.90
2018-06-27T20:25:13.206Z,99.90
2018-06-27T20:27:42.941Z,99.90
2018-06-27T20:30:12.653Z,99.90
2018-06-27T20:32:42.389Z,99.90
2018-06-27T20:35:11.971Z,99.90
2018-06-27T20:37:41.844Z,99.90
2018-06-27T20:40:11.661Z,99.90
2018-06-27T20:42:41.626Z,99.90
2018-06-27T20:45:11.420Z,99.90
2018-06-27T20:47:41.408Z,99.90
2018-06-27T20:50:11.239Z,99.90
2018-06-27T20:52:41.008Z,99.90
2018-06-27T20:55:10.695Z,99.90
2018-06-27T20:57:40.433Z,99.90
2018-06-27T21:00:10.270Z,99.90
2018-06-27T21:02:40.071Z,99.90
2018-06-27T21:05:09.748Z,99.90
2018-06-27T21:07:39.436Z,99.90
2018-06-27T21:10:09.254Z,99.90
2018-06-27T21:12:38.834Z,99.90
2018-06-27T21:15:08.462Z,99.90
2018-06-27T21:17:38.180Z,99.90
2018-06-27T21:20:08.445Z,99.90
2018-06-27T21:22:41.962Z,99.90
2018-06-27T21:25:11.795Z,99.90
2018-06-27T21:27:41.408Z,99.90
2018-06-27T21:30:11.069Z,99.90
2018-06-27T21:32:41.309Z,99.90
2018-06-27T21:35:10.958Z,99.90
2018-06-27T21:37:40.932Z,99.90
2018-06-27T21:40:10.181Z,99.90
2018-06-27T21:42:39.803Z,99.90
2018-06-27T21:45:09.426Z,99.90
2018-06-27T21:47:39.009Z,99.90
2018-06-27T21:50:08.753Z,99.90
2018-06-27T21:52:38.435Z,99.90
2018-06-27T21:55:08.084Z,99.90
2018-06-27T21:57:37.881Z,99.90
2018-06-27T22:00:09.984Z,99.90
2018-06-27T22:02:39.818Z,99.90
2018-06-27T22:05:09.536Z,99.90
2018-06-27T22:07:39.366Z,99.90
2018-06-27T22:10:09.112Z,99.90
2018-06-27T22:12:38.827Z,99.90
2018-06-27T22:15:08.368Z,99.90
2018-06-27T22:17:38.509Z,99.90
2018-06-27T22:20:09.272Z,99.90
2018-06-27T22:22:38.945Z,99.90
2018-06-27T22:25:08.842Z,99.90
2018-06-27T22:27:38.670Z,99.90
2018-06-27T22:30:08.560Z,99.90
2018-06-27T22:32:38.250Z,99.90
2018-06-27T22:35:07.863Z,99.90
2018-06-27T22:37:37.468Z,99.90
2018-06-27T22:40:07.027Z,99.90
2018-06-27T22:42:36.691Z,99.90
2018-06-27T22:45:06.334Z,99.90
2018-06-27T22:47:35.937Z,99.90
2018-06-27T22:50:05.528Z,99.90
2018-06-27T22:52:35.302Z,99.90
2018-06-27T22:55:05.004Z,99.90
2018-06-27T22:57:34.616Z,99.90
2018-06-27T23:00:04.341Z,99.90
2018-06-27T23:02:34.018Z,99.90
2018-06-27T23:05:03.689Z,99.90
2018-06-27T23:07:33.360Z,99.90
2018-06-27T23:10:03.048Z,99.90
2018-06-27T23:12:32.619Z,99.90
2018-06-27T23:15:02.207Z,99.90
2018-06-27T23:17:31.774Z,99.90
2018-06-27T23:20:01.594Z,99.90
2018-06-27T23:22:47.569Z,99.90
2018-06-27T23:25:17.295Z,99.90
2018-06-27T23:27:47.481Z,99.90
2018-06-27T23:30:17.128Z,99.90
2018-06-27T23:32:46.740Z,99.90
2018-06-27T23:35:16.320Z,99.90
2018-06-27T23:37:45.990Z,99.90
2018-06-27T23:40:15.711Z,99.90
2018-06-27T23:42:45.399Z,99.90
2018-06-27T23:45:14.982Z,99.90
2018-06-27T23:47:44.562Z,99.90
2018-06-27T23:50:14.149Z,99.90
2018-06-27T23:52:43.988Z,99.90
2018-06-27T23:55:13.619Z,99.90
2018-06-27T23:57:43.259Z,99.90
